Time;durP1;ratioP1;P1;durP2;ratioP2;P2;SDS_P1;SDS_P2;PMS_P1;PMS_P2;Temp;Humidity;BMP_temperature;BMP_pressure;BME280_temperature;BME280_humidity;BME280_pressure;Samples;Min_cycle;Max_cycle;Signal;HPM_P1;HPM_P2
2023/07/16 00:00:27;;;;;;;1.60;1.30;;;23.90;63.00;;;;;;6347004;28;20035;-59
2023/07/16 00:03:30;;;;;;;1.60;1.50;;;24.70;63.50;;;;;;6347150;27;20055;-59
2023/07/16 00:06:31;;;;;;;1.85;1.17;;;24.30;63.90;;;;;;6347128;27;20050;-60
2023/07/16 00:09:36;;;;;;;2.17;1.30;;;24.30;63.40;;;;;;6346874;28;20047;-60
2023/07/16 00:12:37;;;;;;;1.70;1.30;;;24.10;63.40;;;;;;6347651;28;20027;-59
2023/07/16 00:15:41;;;;;;;2.25;1.65;;;24.20;63.50;;;;;;6345807;27;20039;-59
2023/07/16 00:18:46;;;;;;;1.45;1.20;;;24.50;63.80;;;;;;6347142;28;20336;-59
2023/07/16 00:21:48;;;;;;;1.80;1.63;;;24.30;63.60;;;;;;6347669;28;20034;-60
2023/07/16 00:24:50;;;;;;;2.25;1.40;;;24.30;64.40;;;;;;6346335;27;20039;-59
2023/07/16 00:27:51;;;;;;;1.95;1.70;;;24.40;64.10;;;;;;6347257;28;20035;-60
2023/07/16 00:30:53;;;;;;;1.92;1.58;;;24.10;64.00;;;;;;6346659;27;20049;-59
2023/07/16 00:33:55;;;;;;;1.75;1.42;;;24.30;64.10;;;;;;6347165;27;20047;-59
2023/07/16 00:37:01;;;;;;;1.48;1.20;;;24.40;64.40;;;;;;6347262;27;20035;-60
2023/07/16 00:40:04;;;;;;;1.52;1.20;;;23.70;63.90;;;;;;6346189;27;20050;-59
2023/07/16 00:43:05;;;;;;;1.40;1.00;;;24.20;64.30;;;;;;6346580;28;20401;-60
2023/07/16 00:46:09;;;;;;;1.58;1.30;;;23.50;64.00;;;;;;6346854;27;20114;-60
2023/07/16 00:49:10;;;;;;;1.67;1.50;;;24.20;64.50;;;;;;6341558;28;20035;-60
2023/07/16 00:52:18;;;;;;;1.38;1.27;;;24.20;64.90;;;;;;6333413;27;20031;-60
2023/07/16 00:55:20;;;;;;;1.55;1.10;;;23.80;64.40;;;;;;6329670;27;20532;-59
2023/07/16 00:58:24;;;;;;;1.42;1.30;;;24.10;64.60;;;;;;6345421;27;20041;-59
2023/07/16 01:01:27;;;;;;;1.70;1.27;;;24.10;65.30;;;;;;6346551;27;20027;-60
2023/07/16 01:04:28;;;;;;;1.70;1.30;;;24.20;64.90;;;;;;6345376;28;20039;-60
2023/07/16 01:07:34;;;;;;;1.63;1.10;;;24.20;65.00;;;;;;6346013;27;20039;-59
2023/07/16 01:10:38;;;;;;;1.63;1.30;;;24.00;64.90;;;;;;6346308;28;20042;-59
2023/07/16 01:13:40;;;;;;;2.50;1.60;;;24.10;64.90;;;;;;6326628;28;20539;-59
2023/07/16 01:16:45;;;;;;;1.67;1.30;;;24.10;65.00;;;;;;6345151;27;20118;-59
2023/07/16 01:19:50;;;;;;;1.73;1.17;;;24.00;65.20;;;;;;6342401;28;20382;-59
2023/07/16 01:23:12;;;;;;;1.17;1.08;;;24.20;65.30;;;;;;6341066;28;20042;-59
2023/07/16 01:26:32;;;;;;;1.83;1.23;;;24.10;65.90;;;;;;6341568;27;20038;-59
2023/07/16 01:29:36;;;;;;;1.80;1.40;;;24.00;65.40;;;;;;6341508;28;20031;-59
2023/07/16 01:32:42;;;;;;;2.13;1.42;;;24.00;65.20;;;;;;6340451;27;20035;-60
2023/07/16 01:35:47;;;;;;;1.58;1.20;;;24.10;65.40;;;;;;6340041;27;20032;-59
2023/07/16 01:38:48;;;;;;;2.10;1.65;;;23.90;65.80;;;;;;6327780;28;20038;-59
2023/07/16 01:41:51;;;;;;;1.40;1.13;;;24.00;66.00;;;;;;6327392;27;20035;-59
2023/07/16 01:44:55;;;;;;;1.65;1.17;;;24.20;66.00;;;;;;6333408;28;20468;-59
2023/07/16 01:48:12;;;;;;;2.13;1.50;;;24.10;65.70;;;;;;6341553;28;20714;-59
2023/07/16 01:51:14;;;;;;;1.58;1.25;;;23.90;66.20;;;;;;6339789;27;20039;-59
2023/07/16 01:54:15;;;;;;;1.40;1.13;;;23.80;65.80;;;;;;6341732;28;20043;-59
2023/07/16 01:57:20;;;;;;;1.67;1.17;;;23.90;66.00;;;;;;6332592;27;20088;-59
2023/07/16 02:00:22;;;;;;;1.70;1.58;;;24.00;66.00;;;;;;6351912;28;20035;-46
2023/07/16 02:03:25;;;;;;;2.08;1.25;;;23.90;66.10;;;;;;6353751;28;20042;-47
2023/07/16 02:06:28;;;;;;;1.77;1.40;;;23.50;65.60;;;;;;6353418;27;20102;-48
2023/07/16 02:09:30;;;;;;;2.45;1.20;;;23.90;66.30;;;;;;6348740;28;20130;-46
2023/07/16 02:12:32;;;;;;;2.05;1.40;;;24.20;66.90;;;;;;6349164;27;20042;-46
2023/07/16 02:15:34;;;;;;;2.03;1.17;;;23.60;66.20;;;;;;6347226;27;20032;-47
2023/07/16 02:18:37;;;;;;;1.75;1.50;;;23.90;66.70;;;;;;6337283;28;20223;-50
2023/07/16 02:21:39;;;;;;;2.35;1.15;;;23.90;66.50;;;;;;6337247;27;20027;-46
2023/07/16 02:24:41;;;;;;;1.60;1.23;;;23.40;66.50;;;;;;6345000;27;20024;-47
2023/07/16 02:27:43;;;;;;;2.58;1.50;;;23.90;66.60;;;;;;6338399;27;20031;-46
2023/07/16 02:30:45;;;;;;;1.90;1.40;;;23.90;63.60;;;;;;6337404;27;20032;-44
2023/07/16 02:33:47;;;;;;;1.90;1.27;;;23.80;66.50;;;;;;6345164;28;20043;-48
2023/07/16 02:36:48;;;;;;;1.80;1.48;;;23.80;67.30;;;;;;6337026;28;20581;-46
2023/07/16 02:39:50;;;;;;;1.33;1.05;;;23.90;66.90;;;;;;6347491;27;20041;-46
2023/07/16 02:42:52;;;;;;;1.75;1.10;;;23.80;66.10;;;;;;6349185;28;20046;-50
2023/07/16 02:45:54;;;;;;;1.88;1.50;;;23.90;66.90;;;;;;6349010;27;20074;-46
2023/07/16 02:48:56;;;;;;;1.35;1.02;;;23.90;67.20;;;;;;6345954;27;20566;-46
2023/07/16 02:51:58;;;;;;;1.45;1.27;;;23.80;66.90;;;;;;6337323;28;20035;-49
2023/07/16 02:54:59;;;;;;;1.95;1.55;;;23.80;66.80;;;;;;6336301;28;20497;-46
2023/07/16 02:58:04;;;;;;;1.70;1.40;;;23.50;67.10;;;;;;6346734;27;20035;-46
2023/07/16 03:01:06;;;;;;;2.53;1.50;;;22.40;66.20;;;;;;6349910;27;20038;-47
2023/07/16 03:04:07;;;;;;;2.15;1.83;;;23.90;67.10;;;;;;6350589;28;20038;-46
2023/07/16 03:07:09;;;;;;;1.92;1.50;;;23.70;67.00;;;;;;6350714;27;20035;-48
2023/07/16 03:10:10;;;;;;;1.67;1.20;;;23.60;67.00;;;;;;6351842;28;20039;-45
2023/07/16 03:13:15;;;;;;;1.75;1.25;;;23.70;67.00;;;;;;6350426;27;20042;-47
2023/07/16 03:16:17;;;;;;;1.80;1.48;;;23.30;66.70;;;;;;6350607;27;20040;-47
2023/07/16 03:19:19;;;;;;;1.70;1.52;;;23.70;66.90;;;;;;6350187;27;20066;-47
2023/07/16 03:22:21;;;;;;;1.98;1.55;;;23.20;66.80;;;;;;6349435;28;20035;-47
2023/07/16 03:25:23;;;;;;;1.90;1.60;;;22.50;66.00;;;;;;6349871;27;20042;-44
2023/07/16 03:28:25;;;;;;;1.83;1.10;;;23.70;67.70;;;;;;6351519;28;20110;-48
2023/07/16 03:31:28;;;;;;;1.70;1.25;;;23.70;67.20;;;;;;6350286;27;20035;-46
2023/07/16 03:34:33;;;;;;;1.42;1.23;;;23.60;67.70;;;;;;6341355;28;20235;-45
2023/07/16 03:37:36;;;;;;;2.47;1.45;;;23.40;67.50;;;;;;6333391;28;20313;-48
2023/07/16 03:40:39;;;;;;;1.50;1.20;;;23.30;67.20;;;;;;6341775;28;20050;-47
2023/07/16 03:43:42;;;;;;;2.33;1.60;;;23.80;67.80;;;;;;6336736;28;20437;-44
2023/07/16 03:46:52;;;;;;;1.90;1.50;;;23.60;68.10;;;;;;6338850;28;20494;-46
2023/07/16 03:49:53;;;;;;;1.30;1.20;;;23.50;67.30;;;;;;6335852;27;20043;-47
2023/07/16 03:52:55;;;;;;;2.10;1.45;;;23.30;68.00;;;;;;6335696;28;20035;-46
2023/07/16 03:55:59;;;;;;;1.63;1.40;;;23.60;67.80;;;;;;6337848;27;20628;-47
2023/07/16 03:59:04;;;;;;;1.70;1.48;;;23.60;67.70;;;;;;6338998;27;20042;-49
2023/07/16 04:02:09;;;;;;;1.90;1.30;;;23.50;67.50;;;;;;6334223;27;20035;-48
2023/07/16 04:05:13;;;;;;;1.35;1.23;;;23.50;67.60;;;;;;6341782;27;20192;-46
2023/07/16 04:08:15;;;;;;;2.22;1.35;;;23.30;66.40;;;;;;6350026;28;20110;-45
2023/07/16 04:11:16;;;;;;;1.83;1.45;;;23.50;68.00;;;;;;6348648;27;20039;-49
2023/07/16 04:14:21;;;;;;;2.17;1.50;;;23.50;68.00;;;;;;6347577;27;20031;-47
2023/07/16 04:17:23;;;;;;;1.52;1.20;;;23.60;68.20;;;;;;6347959;27;20103;-48
2023/07/16 04:20:25;;;;;;;2.45;1.40;;;23.60;68.30;;;;;;6347507;27;20113;-45
2023/07/16 04:23:27;;;;;;;1.70;1.40;;;23.50;68.10;;;;;;6338851;27;20226;-47
2023/07/16 04:26:28;;;;;;;1.73;1.38;;;23.50;68.20;;;;;;6339094;28;20092;-43
2023/07/16 04:29:30;;;;;;;2.10;1.65;;;23.50;68.70;;;;;;6338127;28;20031;-47
2023/07/16 04:32:32;;;;;;;2.22;1.30;;;23.40;68.10;;;;;;6339554;27;20061;-45
2023/07/16 04:35:34;;;;;;;2.05;1.48;;;23.60;68.40;;;;;;6349424;28;20435;-50
2023/07/16 04:38:36;;;;;;;2.15;1.45;;;23.30;68.20;;;;;;6349173;28;20059;-45
2023/07/16 04:41:37;;;;;;;2.67;1.95;;;22.70;68.10;;;;;;6347811;27;20046;-49
2023/07/16 04:44:38;;;;;;;1.90;1.40;;;23.40;68.80;;;;;;6348304;27;20072;-50
2023/07/16 04:47:41;;;;;;;2.10;1.48;;;23.10;68.50;;;;;;6347361;27;20380;-48
2023/07/16 04:50:42;;;;;;;2.05;1.48;;;23.50;68.60;;;;;;6346506;27;20039;-48
2023/07/16 04:53:43;;;;;;;3.20;1.88;;;23.50;68.80;;;;;;6348191;27;20063;-44
2023/07/16 04:56:45;;;;;;;1.58;1.42;;;23.00;68.50;;;;;;6346958;27;20084;-48
2023/07/16 04:59:48;;;;;;;1.80;1.35;;;23.40;68.80;;;;;;6346522;27;20089;-48
2023/07/16 05:02:50;;;;;;;1.33;1.23;;;23.00;68.90;;;;;;6338401;27;20035;-44
2023/07/16 05:05:53;;;;;;;2.05;1.65;;;23.00;88.40;;;;;;6334045;28;20127;-46
2023/07/16 05:08:54;;;;;;;3.47;2.05;;;23.50;69.00;;;;;;6336168;27;20092;-49
2023/07/16 05:11:56;;;;;;;1.40;1.25;;;23.30;88.20;;;;;;6335798;27;20369;-44
2023/07/16 05:14:57;;;;;;;1.85;1.40;;;23.40;88.40;;;;;;6335893;28;20050;-45
2023/07/16 05:17:59;;;;;;;1.98;1.65;;;23.50;69.80;;;;;;6332871;27;20036;-46
2023/07/16 05:21:01;;;;;;;1.63;1.52;;;23.40;68.70;;;;;;6333391;27;20533;-43
2023/07/16 05:24:03;;;;;;;2.85;2.22;;;23.20;69.90;;;;;;6334703;28;20043;-46
2023/07/16 05:27:05;;;;;;;1.75;1.42;;;23.10;69.20;;;;;;6333279;27;20043;-45
2023/07/16 05:30:08;;;;;;;1.90;1.60;;;23.50;69.60;;;;;;6330746;28;20471;-49
2023/07/16 05:33:11;;;;;;;1.98;1.35;;;23.40;69.70;;;;;;6327956;27;20100;-46
2023/07/16 05:36:12;;;;;;;2.75;1.48;;;23.40;69.60;;;;;;6296109;28;20043;-47
2023/07/16 05:39:14;;;;;;;1.90;1.70;;;23.40;70.20;;;;;;6329171;28;20067;-47
2023/07/16 05:42:15;;;;;;;;;;;23.30;69.80;;;;;;6335296;27;20658;-49
2023/07/16 05:45:17;;;;;;;2.50;1.75;;;23.90;70.30;;;;;;6335785;28;20558;-42
2023/07/16 05:48:22;;;;;;;2.10;1.45;;;23.40;69.90;;;;;;6335902;28;20040;-44
2023/07/16 05:51:24;;;;;;;2.55;1.95;;;23.30;67.30;;;;;;6340739;27;20043;-47
2023/07/16 05:54:25;;;;;;;2.53;1.75;;;23.30;70.10;;;;;;6336584;27;20041;-47
2023/07/16 05:57:27;;;;;;;2.30;1.75;;;23.30;70.60;;;;;;6337157;27;20091;-47
2023/07/16 06:00:28;;;;;;;2.17;1.67;;;22.90;69.70;;;;;;6335221;27;20035;-46
2023/07/16 06:03:30;;;;;;;1.70;1.50;;;23.40;70.20;;;;;;6335398;27;20035;-45
2023/07/16 06:06:33;;;;;;;2.10;1.80;;;23.30;70.00;;;;;;6339106;28;20066;-49
2023/07/16 06:09:36;;;;;;;2.85;2.00;;;23.40;70.70;;;;;;6344795;28;20065;-46
2023/07/16 06:12:38;;;;;;;2.38;1.80;;;23.30;70.10;;;;;;6343674;27;20509;-48
2023/07/16 06:15:40;;;;;;;2.38;1.90;;;23.40;70.30;;;;;;6345058;28;20066;-47
2023/07/16 06:18:42;;;;;;;2.60;1.70;;;23.40;70.80;;;;;;6345908;27;20076;-47
2023/07/16 06:21:43;;;;;;;2.50;2.05;;;22.90;70.00;;;;;;6345160;28;20035;-49
2023/07/16 06:24:47;;;;;;;2.25;1.80;;;22.90;70.10;;;;;;6347053;28;20049;-50
2023/07/16 06:27:49;;;;;;;3.35;1.90;;;23.40;70.50;;;;;;6346468;27;20027;-46
2023/07/16 06:30:52;;;;;;;2.55;1.90;;;23.40;70.30;;;;;;6344785;28;20039;-46
2023/07/16 06:33:56;;;;;;;2.20;1.70;;;23.30;70.30;;;;;;6336301;28;20043;-49
2023/07/16 06:36:57;;;;;;;2.10;1.67;;;23.40;70.40;;;;;;6340692;28;20323;-46
2023/07/16 06:39:59;;;;;;;1.70;1.48;;;23.40;71.00;;;;;;6333825;28;20273;-43
2023/07/16 06:43:00;;;;;;;2.72;1.80;;;23.40;70.60;;;;;;6345017;27;20036;-45
2023/07/16 06:46:03;;;;;;;2.35;1.85;;;23.40;70.60;;;;;;6344990;27;20039;-47
2023/07/16 06:49:06;;;;;;;2.03;1.83;;;23.30;70.50;;;;;;6345613;27;20455;-49
2023/07/16 06:52:08;;;;;;;1.98;1.73;;;23.40;70.40;;;;;;6344832;27;20043;-45
2023/07/16 06:55:10;;;;;;;2.15;1.70;;;23.40;70.50;;;;;;6344072;27;20452;-47
2023/07/16 06:58:14;;;;;;;1.98;1.45;;;23.50;70.80;;;;;;6344237;27;20640;-48
2023/07/16 07:01:15;;;;;;;1.70;1.58;;;23.20;70.50;;;;;;6336993;28;20524;-46
2023/07/16 07:04:20;;;;;;;2.45;1.83;;;23.50;70.70;;;;;;6332498;27;20042;-45
2023/07/16 07:07:21;;;;;;;2.05;1.73;;;23.50;70.30;;;;;;6330874;27;20085;-45
2023/07/16 07:10:23;;;;;;;;;;;23.20;70.60;;;;;;6334809;27;20069;-47
2023/07/16 07:13:24;;;;;;;1.70;1.55;;;23.40;71.10;;;;;;6329913;27;19919;-46
2023/07/16 07:16:27;;;;;;;1.80;1.40;;;23.40;70.60;;;;;;6333799;28;20049;-46
2023/07/16 07:19:32;;;;;;;1.67;1.55;;;23.60;71.00;;;;;;6344298;28;20035;-44
2023/07/16 07:22:35;;;;;;;2.20;1.63;;;23.50;70.60;;;;;;6342453;28;20456;-46
2023/07/16 07:25:36;;;;;;;2.08;1.67;;;23.60;70.70;;;;;;6337271;27;20069;-48
2023/07/16 07:28:38;;;;;;;1.52;1.42;;;22.60;70.30;;;;;;6345679;27;20035;-47
2023/07/16 07:31:39;;;;;;;2.17;1.67;;;23.50;70.70;;;;;;6334530;28;20041;-47
2023/07/16 07:34:42;;;;;;;2.40;1.50;;;23.60;71.60;;;;;;6346448;27;20097;-47
2023/07/16 07:37:43;;;;;;;1.48;1.25;;;23.60;71.10;;;;;;6348628;27;20042;-49
2023/07/16 07:40:45;;;;;;;2.10;1.42;;;23.60;70.90;;;;;;6348083;27;20031;-44
2023/07/16 07:43:46;;;;;;;1.38;1.27;;;23.60;71.20;;;;;;6348661;27;20326;-44
2023/07/16 07:46:47;;;;;;;1.90;1.50;;;23.70;70.90;;;;;;6347212;28;20035;-49
2023/07/16 07:49:53;;;;;;;1.52;1.27;;;23.60;70.50;;;;;;6339641;28;20398;-45
2023/07/16 07:52:55;;;;;;;1.85;1.40;;;23.60;70.70;;;;;;6336815;27;20027;-46
2023/07/16 07:55:57;;;;;;;1.52;0.90;;;23.60;70.60;;;;;;6348061;28;20409;-47
2023/07/16 07:58:59;;;;;;;1.52;1.33;;;23.70;70.90;;;;;;6346310;27;20433;-50
2023/07/16 08:02:01;;;;;;;1.38;1.25;;;23.50;70.40;;;;;;6337864;28;20035;-46
2023/07/16 08:05:04;;;;;;;2.00;1.27;;;23.40;70.70;;;;;;6332215;27;20039;-49
2023/07/16 08:08:09;;;;;;;1.25;1.00;;;23.80;70.80;;;;;;6333606;27;20475;-47
2023/07/16 08:11:10;;;;;;;1.45;1.20;;;23.50;70.70;;;;;;6345012;27;20035;-48
2023/07/16 08:14:12;;;;;;;1.25;1.00;;;23.60;71.30;;;;;;6347176;27;20043;-44
2023/07/16 08:17:13;;;;;;;1.20;1.10;;;23.50;70.80;;;;;;6346364;27;20551;-44
2023/07/16 08:20:16;;;;;;;0.98;0.80;;;23.50;71.10;;;;;;6346187;28;20525;-46
2023/07/16 08:23:17;;;;;;;1.15;1.00;;;23.60;70.90;;;;;;6344490;27;20042;-48
2023/07/16 08:26:19;;;;;;;1.58;1.00;;;23.70;71.10;;;;;;6346170;28;20039;-47
2023/07/16 08:29:21;;;;;;;1.00;0.80;;;23.40;70.80;;;;;;6347361;28;20034;-48
2023/07/16 08:32:25;;;;;;;1.08;0.90;;;23.60;71.30;;;;;;6345243;27;20402;-48
2023/07/16 08:35:28;;;;;;;1.20;0.77;;;23.70;71.00;;;;;;6345825;27;20184;-46
2023/07/16 08:38:31;;;;;;;1.27;1.00;;;23.50;71.00;;;;;;6345139;28;20027;-46
2023/07/16 08:41:33;;;;;;;1.50;1.02;;;23.60;70.50;;;;;;6337183;27;20047;-46
2023/07/16 08:44:35;;;;;;;1.35;1.10;;;22.70;69.40;;;;;;6334976;27;20070;-45
2023/07/16 08:47:37;;;;;;;1.23;0.90;;;23.60;70.90;;;;;;6333108;27;20039;-47
2023/07/16 08:50:42;;;;;;;1.48;1.25;;;23.60;70.20;;;;;;6326531;28;20027;-46
2023/07/16 08:53:44;;;;;;;1.20;0.90;;;23.40;70.20;;;;;;6346826;28;20074;-47
2023/07/16 08:56:49;;;;;;;1.00;0.80;;;23.30;69.90;;;;;;6347303;27;20046;-48
2023/07/16 08:59:51;;;;;;;1.52;0.95;;;23.70;70.10;;;;;;6346961;28;20035;-48
2023/07/16 09:02:53;;;;;;;1.45;0.90;;;23.80;70.00;;;;;;6327181;28;20078;-48
2023/07/16 09:05:58;;;;;;;1.02;0.90;;;23.70;69.80;;;;;;6336409;27;20039;-46
2023/07/16 09:09:00;;;;;;;1.08;0.98;;;23.60;70.00;;;;;;6333260;27;20118;-44
2023/07/16 09:12:02;;;;;;;1.85;1.00;;;23.90;71.20;;;;;;6333429;27;20034;-43
2023/07/16 09:15:04;;;;;;;2.20;0.80;;;23.80;70.00;;;;;;6344306;28;20577;-46
2023/07/16 09:18:06;;;;;;;1.20;1.10;;;23.90;70.70;;;;;;6344836;27;20031;-46
2023/07/16 09:21:11;;;;;;;1.30;0.95;;;23.80;70.50;;;;;;6345731;28;20084;-48
2023/07/16 09:24:12;;;;;;;2.17;1.25;;;23.70;70.30;;;;;;6343988;28;20044;-47
2023/07/16 09:27:19;;;;;;;1.08;0.82;;;23.90;70.60;;;;;;6345237;27;20076;-48
2023/07/16 09:30:23;;;;;;;1.30;0.90;;;23.80;70.70;;;;;;6347207;28;20039;-46
2023/07/16 09:33:27;;;;;;;1.05;0.90;;;23.90;70.90;;;;;;6337355;27;20047;-44
2023/07/16 09:36:29;;;;;;;1.27;1.00;;;23.50;71.00;;;;;;6338118;28;20065;-48
2023/07/16 09:39:32;;;;;;;1.05;0.80;;;23.80;70.80;;;;;;6343990;27;20043;-48
2023/07/16 09:42:37;;;;;;;1.00;0.90;;;23.60;70.70;;;;;;6317875;28;20039;-46
2023/07/16 09:45:39;;;;;;;1.17;0.90;;;23.90;70.90;;;;;;6337033;28;20039;-47
2023/07/16 09:48:40;;;;;;;1.10;1.00;;;23.00;70.60;;;;;;6344850;27;20035;-45
2023/07/16 09:51:48;;;;;;;1.05;0.70;;;23.50;71.30;;;;;;6346451;27;20517;-47
2023/07/16 09:54:52;;;;;;;1.33;0.90;;;23.90;70.90;;;;;;6343112;28;20038;-49
2023/07/16 09:57:57;;;;;;;1.00;0.70;;;23.90;70.80;;;;;;6338626;27;20544;-50
2023/07/16 10:01:03;;;;;;;1.13;0.80;;;23.80;70.90;;;;;;6314370;27;20051;-47
2023/07/16 10:04:14;;;;;;;1.33;0.80;;;24.20;71.60;;;;;;6334778;27;20766;-49
2023/07/16 10:07:22;;;;;;;1.10;1.00;;;24.10;70.90;;;;;;6343502;28;20488;-48
2023/07/16 10:10:26;;;;;;;1.60;0.95;;;23.80;70.70;;;;;;6327992;27;20643;-47
2023/07/16 10:13:28;;;;;;;1.40;0.90;;;24.00;70.70;;;;;;6343069;27;20529;-45
2023/07/16 10:16:38;;;;;;;1.70;1.13;;;23.80;70.80;;;;;;6342750;27;20278;-48
2023/07/16 10:19:48;;;;;;;1.00;0.90;;;23.90;70.90;;;;;;6314520;28;20148;-47
2023/07/16 10:22:52;;;;;;;1.23;0.80;;;23.90;71.20;;;;;;6336058;28;20049;-47
2023/07/16 10:25:59;;;;;;;1.08;0.80;;;23.40;70.00;;;;;;6336436;28;20658;-47
2023/07/16 10:29:00;;;;;;;1.33;1.15;;;24.10;70.10;;;;;;6338276;28;20031;-47
2023/07/16 10:32:03;;;;;;;1.00;0.60;;;24.00;70.90;;;;;;6334374;28;20099;-45
2023/07/16 10:35:08;;;;;;;0.82;0.70;;;23.90;69.80;;;;;;6313727;28;20498;-46
2023/07/16 10:38:11;;;;;;;1.13;0.80;;;23.90;69.60;;;;;;6342132;27;20032;-47
2023/07/16 10:41:13;;;;;;;1.20;0.80;;;24.10;69.70;;;;;;6340102;28;20143;-50
2023/07/16 10:44:16;;;;;;;1.30;0.90;;;24.00;69.70;;;;;;6335033;27;20075;-46
2023/07/16 10:47:23;;;;;;;1.38;0.95;;;23.80;69.20;;;;;;6336218;27;20035;-46
2023/07/16 10:50:25;;;;;;;0.80;0.75;;;23.70;69.40;;;;;;6314531;28;20045;-44
2023/07/16 10:53:27;;;;;;;0.88;0.70;;;23.80;69.30;;;;;;6335943;27;20239;-50
2023/07/16 10:56:29;;;;;;;1.30;1.00;;;23.80;88.70;;;;;;6342963;27;20066;-48
2023/07/16 10:59:30;;;;;;;1.08;0.73;;;23.70;69.90;;;;;;6344276;27;20096;-47
2023/07/16 11:02:32;;;;;;;1.08;0.75;;;24.10;69.90;;;;;;6340369;27;20628;-47
2023/07/16 11:05:33;;;;;;;0.85;0.77;;;23.60;69.70;;;;;;6342416;27;20040;-48
2023/07/16 11:08:35;;;;;;;1.27;0.80;;;23.90;70.00;;;;;;6329448;27;20039;-46
2023/07/16 11:11:37;;;;;;;1.77;0.80;;;24.20;70.00;;;;;;6346892;27;20386;-48
2023/07/16 11:14:43;;;;;;;1.08;0.80;;;24.20;70.10;;;;;;6339006;28;20216;-46
2023/07/16 11:17:50;;;;;;;0.90;0.77;;;24.20;70.20;;;;;;6299136;28;20385;-45
2023/07/16 11:20:53;;;;;;;1.20;0.77;;;24.10;70.20;;;;;;6328085;28;20070;-44
2023/07/16 11:23:55;;;;;;;1.10;0.85;;;24.30;70.40;;;;;;6345719;28;20540;-48
2023/07/16 11:26:57;;;;;;;0.90;0.63;;;23.20;70.20;;;;;;6329213;27;20046;-51
2023/07/16 11:30:00;;;;;;;0.70;0.60;;;24.20;70.60;;;;;;6341497;28;20063;-45
2023/07/16 11:33:01;;;;;;;0.60;0.30;;;24.00;70.50;;;;;;6329659;28;20041;-49
2023/07/16 11:36:04;;;;;;;0.57;0.50;;;23.70;70.30;;;;;;6348312;27;20044;-46
2023/07/16 11:39:06;;;;;;;0.50;0.50;;;24.20;70.80;;;;;;6334108;28;20042;-51
2023/07/16 11:42:07;;;;;;;0.40;0.30;;;23.80;70.80;;;;;;6335301;28;20042;-46
2023/07/16 11:45:16;;;;;;;0.55;0.45;;;23.90;71.70;;;;;;6345388;27;20039;-45
2023/07/16 11:48:18;;;;;;;0.60;0.40;;;24.20;71.60;;;;;;6328744;28;20031;-47
2023/07/16 11:51:20;;;;;;;0.50;0.40;;;24.20;71.30;;;;;;6348494;27;20036;-46
2023/07/16 11:54:22;;;;;;;0.60;0.40;;;24.20;71.20;;;;;;6336859;27;20380;-46
2023/07/16 11:57:24;;;;;;;0.35;0.35;;;24.10;71.70;;;;;;6346808;27;20312;-47
2023/07/16 12:00:25;;;;;;;0.73;0.50;;;24.20;71.10;;;;;;6346763;27;20036;-44
2023/07/16 12:03:28;;;;;;;0.32;0.30;;;24.20;71.70;;;;;;6347125;28;20107;-46
2023/07/16 12:06:30;;;;;;;0.73;0.40;;;24.00;71.10;;;;;;6347041;28;20422;-47
2023/07/16 12:09:33;;;;;;;0.73;0.50;;;24.10;71.30;;;;;;6347289;27;20043;-47
2023/07/16 12:12:37;;;;;;;0.32;0.28;;;24.30;71.40;;;;;;6343871;27;20408;-44
2023/07/16 12:15:39;;;;;;;0.30;0.30;;;24.30;71.40;;;;;;6346503;27;20483;-48
2023/07/16 12:18:40;;;;;;;0.50;0.38;;;24.10;71.30;;;;;;6344675;27;20035;-47
2023/07/16 12:21:42;;;;;;;0.40;0.28;;;24.20;71.80;;;;;;6345484;28;20456;-46
2023/07/16 12:24:44;;;;;;;0.63;0.25;;;24.20;71.20;;;;;;6343899;28;20498;-47
2023/07/16 12:27:46;;;;;;;0.70;0.40;;;24.00;71.00;;;;;;6325220;27;20043;-49
2023/07/16 12:30:47;;;;;;;0.40;0.30;;;24.40;71.50;;;;;;6346183;27;20461;-45
2023/07/16 12:33:49;;;;;;;0.60;0.20;;;24.40;71.30;;;;;;6345327;28;20039;-47
2023/07/16 12:36:57;;;;;;;0.30;0.30;;;24.30;71.20;;;;;;6341516;28;20042;-49
2023/07/16 12:39:59;;;;;;;0.20;0.20;;;24.40;67.30;;;;;;6341228;28;20035;-48
2023/07/16 12:43:03;;;;;;;0.40;0.28;;;24.40;70.60;;;;;;6333534;28;20043;-49
2023/07/16 12:46:04;;;;;;;0.68;0.38;;;24.50;68.10;;;;;;6342761;28;20095;-47
2023/07/16 12:49:06;;;;;;;0.30;0.30;;;24.40;70.60;;;;;;6344398;27;20035;-48
2023/07/16 12:52:08;;;;;;;0.28;0.20;;;24.10;70.10;;;;;;6346037;28;20463;-47
2023/07/16 12:55:10;;;;;;;0.47;0.22;;;24.50;70.20;;;;;;6344388;27;20035;-48
2023/07/16 12:58:11;;;;;;;0.20;0.13;;;24.30;69.90;;;;;;6337302;27;20031;-50
2023/07/16 13:01:13;;;;;;;0.10;0.10;;;24.60;70.00;;;;;;6337952;27;20453;-48
2023/07/16 13:04:15;;;;;;;0.20;0.20;;;24.60;70.20;;;;;;6326275;28;20058;-47
2023/07/16 13:07:16;;;;;;;0.30;0.20;;;24.30;69.40;;;;;;6345643;28;20034;-48
2023/07/16 13:10:18;;;;;;;0.20;0.20;;;24.50;69.80;;;;;;6344448;28;20046;-47
2023/07/16 13:13:27;;;;;;;0.20;0.20;;;24.20;68.80;;;;;;6335225;28;20524;-45
2023/07/16 13:16:28;;;;;;;0.20;0.20;;;24.80;69.10;;;;;;6336000;28;21005;-51
2023/07/16 13:19:32;;;;;;;0.20;0.20;;;24.30;68.50;;;;;;6342622;27;20116;-46
2023/07/16 13:22:34;;;;;;;0.60;0.20;;;24.70;69.20;;;;;;6336914;27;20035;-49
2023/07/16 13:25:38;;;;;;;0.47;0.32;;;24.80;68.40;;;;;;6346359;28;20264;-48
2023/07/16 13:28:39;;;;;;;0.30;0.30;;;23.80;67.70;;;;;;6346541;27;20039;-48
2023/07/16 13:31:44;;;;;;;0.22;0.10;;;24.70;68.50;;;;;;6346439;27;20054;-46
2023/07/16 13:34:45;;;;;;;0.25;0.20;;;24.70;67.60;;;;;;6346497;28;20460;-51
2023/07/16 13:37:47;;;;;;;0.80;0.50;;;24.60;67.20;;;;;;6347581;28;20095;-50
2023/07/16 13:40:49;;;;;;;0.47;0.30;;;24.30;66.90;;;;;;6345626;27;20042;-45
2023/07/16 13:43:51;;;;;;;0.68;0.50;;;24.80;66.80;;;;;;6346857;28;20091;-47
2023/07/16 13:46:52;;;;;;;0.50;0.40;;;24.70;67.10;;;;;;6348323;28;20039;-49
2023/07/16 13:49:55;;;;;;;0.40;0.32;;;24.90;66.00;;;;;;6346540;28;20417;-47
2023/07/16 13:53:01;;;;;;;0.50;0.47;;;24.90;66.30;;;;;;6347552;27;20050;-46
2023/07/16 13:56:03;;;;;;;1.02;0.32;;;24.80;65.40;;;;;;6346945;28;20039;-47
2023/07/16 13:59:04;;;;;;;0.40;0.40;;;24.70;65.10;;;;;;6345784;27;20057;-47
2023/07/16 14:02:06;;;;;;;0.47;0.40;;;24.90;64.90;;;;;;6327506;28;20062;-46
2023/07/16 14:05:08;;;;;;;0.50;0.40;;;24.80;65.10;;;;;;6344118;28;20096;-48
2023/07/16 14:08:10;;;;;;;0.50;0.30;;;25.00;64.70;;;;;;6342675;28;20035;-45
2023/07/16 14:11:12;;;;;;;0.50;0.40;;;24.50;63.80;;;;;;6342317;28;20060;-48
2023/07/16 14:14:14;;;;;;;0.68;0.50;;;25.00;63.60;;;;;;6344943;28;20042;-45
2023/07/16 14:17:15;;;;;;;0.68;0.50;;;24.80;63.00;;;;;;6345909;28;20039;-50
2023/07/16 14:20:17;;;;;;;0.60;0.40;;;24.80;62.60;;;;;;6344606;28;20064;-48
2023/07/16 14:23:18;;;;;;;0.45;0.30;;;24.90;62.90;;;;;;6344697;27;20782;-46
2023/07/16 14:26:21;;;;;;;1.10;0.60;;;24.90;61.80;;;;;;6344604;27;20047;-48
2023/07/16 14:29:22;;;;;;;0.75;0.63;;;25.00;61.60;;;;;;6345154;28;20300;-46
2023/07/16 14:32:25;;;;;;;0.57;0.57;;;24.90;61.30;;;;;;6345841;28;20066;-49
2023/07/16 14:35:27;;;;;;;0.70;0.50;;;25.00;61.70;;;;;;6349023;27;20079;-47
2023/07/16 14:38:38;;;;;;;0.80;0.60;;;24.90;60.50;;;;;;6350349;28;20476;-48
2023/07/16 14:41:40;;;;;;;0.60;0.40;;;25.10;60.50;;;;;;6349694;27;20503;-48
2023/07/16 14:44:41;;;;;;;0.68;0.60;;;24.70;59.90;;;;;;6348973;28;20060;-49
2023/07/16 14:47:43;;;;;;;0.60;0.50;;;24.70;60.10;;;;;;6350076;27;20609;-47
2023/07/16 14:50:48;;;;;;;0.75;0.60;;;25.00;60.50;;;;;;6347907;27;20126;-44
2023/07/16 14:53:50;;;;;;;1.42;0.77;;;25.00;59.50;;;;;;6349669;27;20422;-49
2023/07/16 14:56:52;;;;;;;0.85;0.70;;;24.90;59.70;;;;;;6349552;27;20536;-47
2023/07/16 14:59:53;;;;;;;1.80;0.70;;;24.70;59.10;;;;;;6349873;28;20039;-47
2023/07/16 15:02:55;;;;;;;1.10;0.70;;;25.10;59.70;;;;;;6349601;28;20046;-46
2023/07/16 15:05:58;;;;;;;1.23;0.93;;;24.60;58.90;;;;;;6349789;28;20035;-46
2023/07/16 15:08:59;;;;;;;1.08;0.70;;;24.90;58.90;;;;;;6350258;27;20152;-46
2023/07/16 15:12:01;;;;;;;1.00;0.80;;;25.10;59.70;;;;;;6349218;27;20038;-48
2023/07/16 15:15:04;;;;;;;0.80;0.70;;;24.90;58.80;;;;;;6348689;28;20035;-49
2023/07/16 15:18:05;;;;;;;1.10;0.77;;;25.10;59.30;;;;;;6347551;27;20065;-48
2023/07/16 15:21:07;;;;;;;0.85;0.70;;;24.50;58.60;;;;;;6346913;28;20040;-45
2023/07/16 15:24:08;;;;;;;1.00;0.63;;;24.10;58.40;;;;;;6346115;27;20058;-49
2023/07/16 15:27:11;;;;;;;0.70;0.60;;;25.10;58.70;;;;;;6349004;27;20035;-45
2023/07/16 15:30:13;;;;;;;1.10;0.70;;;25.10;58.90;;;;;;6346858;27;20027;-50
2023/07/16 15:33:14;;;;;;;0.70;0.60;;;24.70;58.70;;;;;;6347557;28;20047;-47
2023/07/16 15:36:16;;;;;;;1.10;0.82;;;24.90;58.60;;;;;;6348574;27;20084;-46
2023/07/16 15:39:19;;;;;;;1.02;0.82;;;25.00;58.60;;;;;;6348071;27;20323;-47
2023/07/16 15:42:21;;;;;;;1.50;0.80;;;24.80;58.50;;;;;;6348692;28;20039;-47
2023/07/16 15:45:24;;;;;;;1.42;1.00;;;25.00;58.50;;;;;;6347591;27;20054;-51
2023/07/16 15:48:25;;;;;;;0.90;0.80;;;24.70;58.90;;;;;;6347321;28;21057;-45
2023/07/16 15:51:28;;;;;;;0.75;0.73;;;24.50;58.00;;;;;;6347987;27;20031;-49